createdAt,value
2023-02-04T00:07:17.017Z,6.5
2023-02-04T00:26:31.945Z,6.3
2023-02-04T00:45:49.262Z,6.3
2023-02-04T01:05:06.163Z,6.1
2023-02-04T01:24:22.592Z,6.2
2023-02-04T01:43:39.935Z,6.2
2023-02-04T02:02:58.336Z,6.3
2023-02-04T02:22:14.965Z,6.4
2023-02-04T02:41:31.499Z,6.4
2023-02-04T03:00:45.825Z,6.3
2023-02-04T03:20:01.612Z,6.2
2023-02-04T03:39:19.223Z,6.1
2023-02-04T03:58:34.838Z,6.2
2023-02-04T04:17:51.885Z,6.1
2023-02-04T04:37:08.712Z,6.1
2023-02-04T04:56:27.538Z,6.2
2023-02-04T05:15:45.759Z,6.2
2023-02-04T05:35:01.186Z,6.1
2023-02-04T05:54:18.328Z,6.1
2023-02-04T06:13:35.684Z,6.1
2023-02-04T06:32:52.816Z,6.3
2023-02-04T06:52:09.142Z,6.3
2023-02-04T07:11:25.580Z,6.2
2023-02-04T07:30:41.963Z,6.1
2023-02-04T07:49:58.444Z,6.3
2023-02-04T08:09:17.030Z,6.5
2023-02-04T08:28:37.690Z,6.5
2023-02-04T08:47:56.077Z,6.8
2023-02-04T09:07:15.300Z,7.1
2023-02-04T09:26:34.180Z,7.4
2023-02-04T10:05:13.652Z,7.7
2023-02-04T10:24:29.451Z,7.9
2023-02-04T10:43:47.206Z,7.8
2023-02-04T11:03:02.754Z,7.8
2023-02-04T11:22:20.933Z,8.2
2023-02-04T11:41:41.012Z,8.5
2023-02-04T12:00:58.026Z,8.6
2023-02-04T12:20:14.525Z,8.7
2023-02-04T12:39:32.295Z,8.9
2023-02-04T12:58:49.900Z,9.1
2023-02-04T13:18:07.942Z,9
2023-02-04T13:37:23.888Z,8.9
2023-02-04T13:56:40.750Z,8.8
2023-02-04T14:15:57.213Z,8.8
2023-02-04T14:35:14.869Z,9.1
2023-02-04T14:54:33.258Z,9.1
2023-02-04T15:13:49.988Z,8.9
2023-02-04T15:33:08.428Z,8.9
2023-02-04T15:52:25.840Z,8.7
2023-02-04T16:11:42.494Z,8.4
2023-02-04T16:30:58.999Z,8.3
2023-02-04T16:50:15.849Z,8
2023-02-04T17:09:29.320Z,7.9
2023-02-04T17:28:45.840Z,7.6
2023-02-04T17:48:01.901Z,7.1
2023-02-04T18:07:14.559Z,6.4
2023-02-04T18:26:30.513Z,6
2023-02-04T18:45:47.015Z,5.7
2023-02-04T19:05:12.995Z,5.4
2023-02-04T19:24:22.039Z,4.6
2023-02-04T19:43:35.071Z,4.3
2023-02-04T20:02:46.998Z,4.1
2023-02-04T20:22:01.471Z,3.9
2023-02-04T20:41:17.810Z,3.6
2023-02-04T21:00:35.389Z,4.1
2023-02-04T21:19:55.805Z,3.8
2023-02-04T21:39:10.415Z,3.6
2023-02-04T21:58:27.691Z,3.7
2023-02-04T22:17:44.979Z,3.5
2023-02-04T22:37:02.562Z,3.6
2023-02-04T22:56:20.146Z,3.7
2023-02-04T23:15:35.172Z,3.8
2023-02-04T23:34:54.234Z,3.9
2023-02-04T23:54:13.199Z,4.3
